createdAt,value
2023-05-18T06:21:41.275Z,100.00
2023-05-18T06:31:41.384Z,100.00
2023-05-18T06:41:41.293Z,98.46
2023-05-18T06:51:41.262Z,93.07
2023-05-18T07:01:41.572Z,87.83
2023-05-18T07:11:41.283Z,84.66
2023-05-18T07:21:41.458Z,82.14
2023-05-18T07:31:41.419Z,78.39
2023-05-18T07:41:41.479Z,76.82
2023-05-18T07:51:41.443Z,73.94
2023-05-18T08:01:41.554Z,74.13
2023-05-18T08:11:41.370Z,70.61
2023-05-18T08:21:41.331Z,70.55
2023-05-18T08:31:41.368Z,70.06
2023-05-18T08:41:41.571Z,66.29
2023-05-18T08:51:41.648Z,67.47
2023-05-18T09:01:41.947Z,64.92
2023-05-18T09:11:41.966Z,64.29
2023-05-18T09:21:41.937Z,63.53
2023-05-18T09:31:41.818Z,62.23
2023-05-18T09:41:41.771Z,61.14
2023-05-18T09:51:41.849Z,63.85
2023-05-18T10:01:41.796Z,64.33
2023-05-18T10:11:41.872Z,59.79
2023-05-18T10:21:41.834Z,60.31
2023-05-18T10:31:41.897Z,62.32
2023-05-18T10:41:41.753Z,58.72
2023-05-18T10:51:41.926Z,58.75
2023-05-18T11:01:42.199Z,59.19
2023-05-18T11:11:42.061Z,59.20
2023-05-18T11:21:41.819Z,54.97
2023-05-18T11:31:42.132Z,55.58
2023-05-18T11:41:42.045Z,55.67
2023-05-18T11:51:42.112Z,55.87
2023-05-18T12:01:42.079Z,52.22
2023-05-18T12:11:41.955Z,52.51
2023-05-18T12:21:42.102Z,54.08
2023-05-18T12:31:42.000Z,51.83
2023-05-18T12:41:42.233Z,51.57
2023-05-18T12:51:41.991Z,52.30
2023-05-18T13:01:42.108Z,52.07
2023-05-18T13:11:42.158Z,50.63
2023-05-18T13:21:42.092Z,50.32
2023-05-18T13:31:42.192Z,50.20
2023-05-18T13:41:42.029Z,50.76
2023-05-18T13:51:42.092Z,50.06
2023-05-18T14:01:42.279Z,51.44
2023-05-18T14:11:42.041Z,49.99
2023-05-18T14:21:42.201Z,49.83
2023-05-18T14:31:42.256Z,47.22
2023-05-18T14:41:42.057Z,49.03
2023-05-18T14:51:41.977Z,50.47
2023-05-18T15:01:42.109Z,50.37
2023-05-18T15:11:42.109Z,48.95
2023-05-18T15:21:42.185Z,48.42
2023-05-18T15:31:42.090Z,47.95
2023-05-18T15:41:42.415Z,48.10
2023-05-18T15:51:42.171Z,47.55
2023-05-18T16:01:42.297Z,48.96
2023-05-18T16:11:42.413Z,51.21
2023-05-18T16:21:42.181Z,50.09
2023-05-18T16:31:42.170Z,48.75
2023-05-18T16:41:42.101Z,47.35
2023-05-18T16:51:42.182Z,47.55
2023-05-18T17:01:42.372Z,48.75
2023-05-18T17:11:42.198Z,48.35
2023-05-18T17:21:42.152Z,48.46
2023-05-18T17:31:43.385Z,48.70
2023-05-18T17:41:42.206Z,49.86
2023-05-18T17:51:42.376Z,51.35
2023-05-18T18:01:42.363Z,53.09
2023-05-18T18:12:00.628Z,55.09
2023-05-18T18:22:14.804Z,55.99
2023-05-18T18:31:59.115Z,56.51
2023-05-18T18:41:59.091Z,57.46
2023-05-18T18:51:59.000Z,59.76
2023-05-18T19:01:58.997Z,62.46
2023-05-18T19:11:59.117Z,65.05
2023-05-18T19:21:59.147Z,68.83
